Airfield :
LOGIN :

Register | Disclaimer

   EN    FR    IT 

 










Legend :    VFR   Marginal VFR   IFR   Intensive IFR   Very Intensive IFR
Visi :
Ceiling :
>= 8 km
>= 3000ft
5 to 8 km
1000 to 3000 ft
1500m to 5 km
500 to 1000 ft
800 to 1500m
200 to 500 ft
< 800m
< 200 ft
Symbols :   Thunderstorms  Fog  Heavy snow  Heavy precipitations  Wind > 20 kt
SIGMETs :     Misc.  Thunderstorms  Icing  Turbulence  Mountain Waves  Volcanic Ashes







- Airport Elevation : 628 ft
- IATA code : PNL


LICG - Pantelleria

CURRENT METAR :
  • 211755Z 36010KT 9999 FEW020 SCT023 11/08 Q1026

EXPIRED METARs :
  • 211655Z 01010KT 9999 SCT020 11/08 Q1026 RMK SCT VIS MIN 9999 WIND THR08 34010KT WIND THR21 33010KT BLU
  • 211555Z 01011KT 9999 SCT020 12/08 Q1026

TAF TAF LICG
Valid from the 21 at 18:00 until the 22 at 03:00 UTC


211700Z 2118/2203 01012KT 9999 SCT020
No reported NOTAMs for that airfield.
1 SIGMET reported for the Roma FIR (LIRR) :
 
Volcanic ashes
LIRR SIGMET 9 VALID 211814/220014 LIIB
LIRR ROMA FIR VA ERUPTION MT ETNA PSN N3744 E01500 VA CLD OBS AT 1800Z WI N3630 E01504 - N3645 E01419 - N3730 E01434 - N3740 E01500 - N3630 E01504 SFC/FL120 NC FCST AT 22/0000Z WI N3630 E01456 - N3740 E01500 - N3655 E01600 - N3630 E01530 - N3630 E01456=



MET'MAP, your aeronautical weather chart ! - Copyright ORBIFLY December 2007 - Disclaimer

ORBIFLY MET'MAP TEAM :

Programming & Development : Alexandra Zaïnal
Concept & Development : Baudouin d'Aumeries
Co-Development & Prog : Marc-Olivier Méhu
Technical & hardware support : Manuel Goepfert

Contact : metmap@orbifly.com




SOURCES & CREDITS :

   NOAA